createdAt,value
2023-12-09T00:04:52.813Z,101129.34
2023-12-09T00:35:32.809Z,101125.38
2023-12-09T00:38:53.368Z,101124.88
2023-12-09T00:42:36.603Z,101130.09
2023-12-09T00:45:31.073Z,101135.25
2023-12-09T00:49:30.171Z,101137.69
2023-12-09T00:56:34.390Z,101134.22
2023-12-09T01:02:35.605Z,101139.94
2023-12-09T01:05:05.278Z,101135.59
2023-12-09T01:07:34.596Z,101130.44
2023-12-09T01:15:07.963Z,101126.66
2023-12-09T01:17:34.870Z,101126.44
2023-12-09T01:20:45.754Z,101122.66
2023-12-09T01:24:04.719Z,101128.94
2023-12-09T01:39:30.378Z,101130.75
2023-12-09T01:52:27.912Z,101107.44
2023-12-09T02:01:58.614Z,101112.47
2023-12-09T02:36:13.082Z,101077.84
2023-12-09T03:04:39.770Z,101043.66
2023-12-09T03:08:05.517Z,101036.59
2023-12-09T03:53:06.399Z,101022.50
2023-12-09T04:05:11.230Z,101020.88
2023-12-09T04:08:02.177Z,101013.31
2023-12-09T04:10:39.720Z,100996.69
2023-12-09T04:13:33.870Z,100999.72
2023-12-09T04:20:02.930Z,100991.84
2023-12-09T04:28:34.219Z,100977.75
2023-12-09T04:34:38.944Z,100982.97
2023-12-09T04:38:20.047Z,100977.28
2023-12-09T04:41:09.589Z,100977.03
2023-12-09T04:46:47.726Z,100970.03
2023-12-09T04:50:12.450Z,100971.44
2023-12-09T04:53:34.763Z,100980.44
2023-12-09T04:56:45.929Z,100967.44
2023-12-09T04:59:15.158Z,100953.31
2023-12-09T05:01:42.745Z,100950.59
2023-12-09T05:07:39.038Z,100954.97
2023-12-09T05:10:06.207Z,100957.19
2023-12-09T05:13:06.265Z,100944.69
2023-12-09T05:16:12.379Z,100935.47
2023-12-09T05:18:39.190Z,100934.94
2023-12-09T05:25:41.244Z,100939.56
2023-12-09T05:28:32.930Z,100950.44
2023-12-09T05:31:11.460Z,100940.66
2023-12-09T05:34:03.589Z,100942.06
2023-12-09T05:36:39.372Z,100923.03
2023-12-09T05:39:06.478Z,100918.41
2023-12-09T05:42:07.245Z,100927.91
2023-12-09T05:44:34.078Z,100909.97
2023-12-09T05:46:06.905Z,100940.38
2023-12-09T05:47:03.899Z,100915.41
2023-12-09T05:50:41.204Z,100921.88
2023-12-09T05:54:12.634Z,100915.06
2023-12-09T05:57:03.958Z,100913.16
2023-12-09T06:03:13.189Z,100905.00
2023-12-09T06:05:39.969Z,100899.88
2023-12-09T06:08:09.109Z,100887.38
2023-12-09T06:11:37.860Z,100887.38
2023-12-09T06:14:08.857Z,100878.41
2023-12-09T06:17:04.166Z,100884.66
2023-12-09T06:20:07.916Z,100866.97
2023-12-09T06:23:02.053Z,100863.44
2023-12-09T06:25:43.697Z,100869.69
2023-12-09T06:28:45.899Z,100864.19
2023-12-09T06:31:28.090Z,100854.97
2023-12-09T06:35:06.963Z,100854.38
2023-12-09T06:37:44.962Z,100853.22
2023-12-09T06:44:59.744Z,100833.53
2023-12-09T06:48:42.405Z,100827.00
2023-12-09T07:05:14.387Z,100800.78
2023-12-09T07:09:05.217Z,100791.53
2023-12-09T07:11:40.410Z,100786.91
2023-12-09T07:14:14.356Z,100781.47
2023-12-09T07:16:43.544Z,100764.34
2023-12-09T07:22:52.092Z,100771.91
2023-12-09T07:29:08.819Z,100762.38
2023-12-09T07:31:50.096Z,100761.56
2023-12-09T07:34:43.984Z,100763.19
2023-12-09T08:03:25.366Z,100728.97
2023-12-09T08:18:30.379Z,100720.97
2023-12-09T08:32:03.061Z,100692.59
2023-12-09T08:34:30.592Z,100675.16
2023-12-09T08:37:00.422Z,100671.34
2023-12-09T08:40:32.537Z,100677.28
2023-12-09T08:42:59.382Z,100673.47
2023-12-09T08:45:40.397Z,100668.03
2023-12-09T08:48:08.170Z,100651.69
2023-12-09T08:50:34.944Z,100648.69
2023-12-09T08:53:05.756Z,100643.25
2023-12-09T08:56:05.019Z,100625.53
2023-12-09T08:58:56.666Z,100631.47
2023-12-09T09:01:41.177Z,100631.16
2023-12-09T09:04:07.979Z,100618.38
2023-12-09T09:06:40.314Z,100636.00
2023-12-09T09:09:07.331Z,100614.47
2023-12-09T09:11:36.733Z,100611.44
2023-12-09T09:14:05.943Z,100605.41
2023-12-09T09:16:32.448Z,100589.59
2023-12-09T09:18:59.115Z,100590.38
2023-12-09T09:21:25.773Z,100583.03
2023-12-09T09:23:52.951Z,100584.94
2023-12-09T09:26:34.716Z,100570.75
2023-12-09T09:29:01.788Z,100575.38
2023-12-09T09:31:37.397Z,100570.75
2023-12-09T09:34:04.266Z,100563.09
2023-12-09T09:40:05.485Z,100545.63
2023-12-09T09:46:32.693Z,100527.59
2023-12-09T09:49:30.706Z,100520.94
2023-12-09T09:56:16.174Z,100483.00
2023-12-09T09:58:47.143Z,100452.63
2023-12-09T10:01:15.998Z,100461.19
2023-12-09T10:03:42.859Z,100465.22
2023-12-09T10:06:15.561Z,100457.53
2023-12-09T10:09:08.620Z,100470.84
2023-12-09T10:11:38.164Z,100458.00
2023-12-09T10:14:10.536Z,100449.22
2023-12-09T10:16:37.081Z,100437.72
2023-12-09T10:19:03.825Z,100436.47
2023-12-09T10:21:30.986Z,100423.84
2023-12-09T10:24:23.097Z,100411.22
2023-12-09T10:26:49.856Z,100407.88
2023-12-09T10:29:16.902Z,100411.09
2023-12-09T10:31:43.729Z,100400.69
2023-12-09T10:34:14.181Z,100383.72
2023-12-09T10:36:46.239Z,100389.66
2023-12-09T10:41:54.021Z,100380.84
2023-12-09T10:44:24.806Z,100362.25
2023-12-09T10:46:51.629Z,100354.59
2023-12-09T10:49:20.129Z,100356.19
2023-12-09T10:51:55.637Z,100335.19
2023-12-09T10:54:38.243Z,100323.66
2023-12-09T11:00:17.750Z,100297.72
2023-12-09T11:02:46.445Z,100284.06
2023-12-09T11:05:14.185Z,100282.66
2023-12-09T11:10:22.505Z,100277.38
2023-12-09T11:13:52.997Z,100254.13
2023-12-09T11:16:37.731Z,100226.06
2023-12-09T11:19:39.545Z,100214.84
2023-12-09T11:22:14.565Z,100202.00
2023-12-09T11:24:46.000Z,100185.66
2023-12-09T11:30:52.208Z,100148.78
2023-12-09T11:33:19.299Z,100148.47
2023-12-09T11:35:47.335Z,100140.78
2023-12-09T11:38:15.184Z,100138.50
2023-12-09T11:43:33.064Z,100105.13
2023-12-09T11:46:04.658Z,100109.16
2023-12-09T11:48:31.897Z,100091.34
2023-12-09T11:51:05.069Z,100088.78
2023-12-09T11:53:39.658Z,100096.66
2023-12-09T11:58:52.610Z,100070.50
2023-12-09T12:01:19.619Z,100068.91
2023-12-09T12:03:50.214Z,100056.38
2023-12-09T12:06:20.780Z,100051.56
2023-12-09T12:08:49.200Z,100028.97
2023-12-09T12:11:22.248Z,100027.50
2023-12-09T12:13:49.642Z,100015.00
2023-12-09T12:16:16.451Z,100011.47
2023-12-09T12:18:43.333Z,100006.34
2023-12-09T12:21:10.183Z,99978.28
2023-12-09T12:23:37.202Z,99973.63
2023-12-09T12:26:13.118Z,99970.44
2023-12-09T12:28:45.778Z,99952.47
2023-12-09T12:31:15.109Z,99947.00
2023-12-09T12:33:42.075Z,99933.38
2023-12-09T12:36:09.535Z,99918.94
2023-12-09T12:38:36.434Z,99922.94
2023-12-09T12:41:04.110Z,99910.91
2023-12-09T12:43:32.156Z,99909.78
2023-12-09T12:46:00.074Z,99903.22
2023-12-09T12:48:27.277Z,99882.84
2023-12-09T12:50:54.600Z,99873.72
2023-12-09T12:53:24.466Z,99858.03
2023-12-09T12:55:53.504Z,99854.53
2023-12-09T12:58:20.072Z,99853.25
2023-12-09T13:00:50.350Z,99839.94
2023-12-09T13:03:17.623Z,99836.41
2023-12-09T13:05:44.605Z,99818.78
2023-12-09T13:08:11.417Z,99820.72
2023-12-09T13:10:38.075Z,99806.63
2023-12-09T13:13:06.584Z,99810.78
2023-12-09T13:15:36.523Z,99795.56
2023-12-09T13:18:13.811Z,99767.84
2023-12-09T13:20:41.273Z,99768.50
2023-12-09T13:23:08.392Z,99759.50
2023-12-09T13:25:39.061Z,99739.97
2023-12-09T13:28:05.806Z,99718.97
2023-12-09T13:30:32.519Z,99715.44
2023-12-09T13:33:05.738Z,99695.91
2023-12-09T13:35:32.449Z,99694.75
2023-12-09T13:38:03.451Z,99684.66
2023-12-09T13:40:30.714Z,99670.25
2023-12-09T13:42:57.486Z,99658.06
2023-12-09T13:45:25.963Z,99626.50
2023-12-09T13:47:53.625Z,99611.16
2023-12-09T13:50:20.277Z,99604.47
2023-12-09T13:52:46.898Z,99590.38
2023-12-09T13:55:13.591Z,99579.34
2023-12-09T13:57:40.538Z,99571.97
2023-12-09T14:00:09.366Z,99559.00
2023-12-09T14:02:40.945Z,99550.34
2023-12-09T14:05:10.755Z,99547.63
2023-12-09T14:07:37.960Z,99550.69
2023-12-09T14:10:06.363Z,99528.44
2023-12-09T14:12:34.264Z,99532.28
2023-12-09T14:15:04.072Z,99515.47
2023-12-09T14:17:30.821Z,99494.81
2023-12-09T14:19:57.505Z,99498.34
2023-12-09T14:22:24.968Z,99472.22
2023-12-09T14:24:57.381Z,99463.59
2023-12-09T14:27:24.565Z,99456.53
2023-12-09T14:29:51.629Z,99435.88
2023-12-09T14:32:18.235Z,99435.88
2023-12-09T14:34:45.175Z,99412.84
2023-12-09T14:37:11.982Z,99409.66
2023-12-09T14:39:38.727Z,99406.13
2023-12-09T14:42:05.755Z,99406.13
2023-12-09T14:44:32.497Z,99392.06
2023-12-09T14:47:01.880Z,99385.47
2023-12-09T14:49:30.952Z,99374.91
2023-12-09T14:51:57.859Z,99386.97
2023-12-09T14:54:50.076Z,99362.47
2023-12-09T14:57:21.024Z,99355.44
2023-12-09T14:59:47.718Z,99354.97
2023-12-09T15:02:18.973Z,99346.00
2023-12-09T15:04:48.418Z,99347.94
2023-12-09T15:07:15.101Z,99344.41
2023-12-09T15:09:44.284Z,99330.78
2023-12-09T15:12:11.031Z,99327.28
2023-12-09T15:14:37.865Z,99347.13
2023-12-09T15:17:05.109Z,99328.41
2023-12-09T15:19:32.097Z,99326.00
2023-12-09T15:21:58.769Z,99300.72
2023-12-09T15:24:28.428Z,99316.25
2023-12-09T15:26:55.751Z,99308.41
2023-12-09T15:29:22.950Z,99318.97
2023-12-09T15:31:49.564Z,99309.69
2023-12-09T15:34:16.602Z,99302.63
2023-12-09T15:36:45.295Z,99288.22
2023-12-09T15:39:12.154Z,99287.09
2023-12-09T15:41:39.653Z,99296.06
2023-12-09T15:44:06.296Z,99294.47
2023-12-09T15:46:33.238Z,99286.31
2023-12-09T15:49:02.453Z,99282.00
2023-12-09T15:51:31.513Z,99279.28
2023-12-09T15:53:58.352Z,99267.25
2023-12-09T15:56:27.689Z,99266.44
2023-12-09T15:58:54.375Z,99264.53
2023-12-09T16:01:23.069Z,99270.44
2023-12-09T16:03:50.527Z,99265.44
2023-12-09T16:06:17.302Z,99255.69
2023-12-09T16:08:44.003Z,99263.84
2023-12-09T16:11:10.547Z,99247.53
2023-12-09T16:13:39.601Z,99244.78
2023-12-09T16:16:06.840Z,99242.88
2023-12-09T16:18:33.612Z,99231.97
2023-12-09T16:21:02.057Z,99233.22
2023-12-09T16:23:29.819Z,99211.78
2023-12-09T16:25:56.475Z,99211.78
2023-12-09T16:28:23.262Z,99217.22
2023-12-09T16:30:49.928Z,99201.69
2023-12-09T16:33:19.721Z,99212.25
2023-12-09T16:35:46.550Z,99233.69
2023-12-09T16:38:13.116Z,99244.59
2023-12-09T16:40:39.734Z,99224.81
2023-12-09T16:43:06.530Z,99218.25
2023-12-09T16:45:33.164Z,99221.31
2023-12-09T16:47:59.907Z,99216.66
2023-12-09T16:50:27.062Z,99240.03
2023-12-09T16:52:53.739Z,99239.34
2023-12-09T16:55:21.685Z,99221.41
2023-12-09T16:57:51.442Z,99214.50
2023-12-09T17:00:18.470Z,99204.06
2023-12-09T17:02:45.094Z,99203.72
2023-12-09T17:05:12.425Z,99201.47
2023-12-09T17:07:39.139Z,99189.44
2023-12-09T17:10:06.373Z,99185.25
2023-12-09T17:12:35.790Z,99196.94
2023-12-09T17:15:04.903Z,99188.09
2023-12-09T17:17:32.520Z,99186.94
2023-12-09T17:19:59.190Z,99173.78
2023-12-09T17:22:27.406Z,99185.47
2023-12-09T17:24:54.138Z,99183.53
2023-12-09T17:27:20.799Z,99178.56
2023-12-09T17:29:47.545Z,99176.97
2023-12-09T17:32:14.185Z,99180.16
2023-12-09T17:34:40.855Z,99184.91
2023-12-09T17:37:07.461Z,99182.63
2023-12-09T17:39:34.111Z,99180.34
2023-12-09T17:42:00.717Z,99171.50
2023-12-09T17:44:27.390Z,99178.19
2023-12-09T17:46:56.033Z,99187.59
2023-12-09T17:49:22.879Z,99187.72
2023-12-09T17:51:49.665Z,99181.59
2023-12-09T17:54:16.347Z,99166.94
2023-12-09T17:56:43.168Z,99173.28
2023-12-09T17:59:09.913Z,99171.22
2023-12-09T18:01:36.615Z,99174.84
2023-12-09T18:04:03.983Z,99162.44
2023-12-09T18:06:30.908Z,99166.09
2023-12-09T18:08:57.661Z,99170.63
2023-12-09T18:11:24.280Z,99174.34
2023-12-09T18:13:50.843Z,99183.50
2023-12-09T18:16:18.163Z,99177.81
2023-12-09T18:18:46.042Z,99184.25
2023-12-09T18:21:12.715Z,99183.66
2023-12-09T18:23:44.539Z,99188.59
2023-12-09T18:26:14.026Z,99191.63
2023-12-09T18:28:44.671Z,99186.81
2023-12-09T18:31:11.610Z,99197.25
2023-12-09T18:33:38.330Z,99194.22
2023-12-09T18:36:05.724Z,99205.09
2023-12-09T18:38:32.597Z,99204.16
2023-12-09T18:40:59.189Z,99207.78
2023-12-09T18:43:25.848Z,99201.28
2023-12-09T18:45:53.634Z,99203.63
2023-12-09T18:48:20.782Z,99203.81
2023-12-09T18:50:48.113Z,99214.75
2023-12-09T18:53:14.777Z,99219.75
2023-12-09T18:55:41.443Z,99220.91
2023-12-09T18:58:09.837Z,99225.56
2023-12-09T19:00:37.259Z,99238.72
2023-12-09T19:03:04.433Z,99244.00
2023-12-09T19:05:31.324Z,99248.22
2023-12-09T19:07:58.010Z,99264.47
2023-12-09T19:10:24.895Z,99274.94
2023-12-09T19:12:52.353Z,99263.94
2023-12-09T19:15:21.633Z,99280.91
2023-12-09T19:17:50.110Z,99290.06
2023-12-09T19:20:19.488Z,99284.41
2023-12-09T19:22:46.562Z,99304.44
2023-12-09T19:25:13.322Z,99317.41
2023-12-09T19:27:49.534Z,99311.41
2023-12-09T19:30:16.412Z,99305.41
2023-12-09T19:32:43.084Z,99317.69
2023-12-09T19:35:10.212Z,99336.56
2023-12-09T19:37:43.060Z,99331.34
2023-12-09T19:40:10.379Z,99334.31
2023-12-09T19:42:37.055Z,99338.09
2023-12-09T19:45:06.910Z,99355.00
2023-12-09T19:47:36.534Z,99353.31
2023-12-09T19:50:04.139Z,99361.81
2023-12-09T19:52:31.537Z,99358.28
2023-12-09T19:54:58.541Z,99370.00
2023-12-09T19:57:25.554Z,99375.44
2023-12-09T19:59:53.620Z,99388.75
2023-12-09T20:02:20.755Z,99390.00
2023-12-09T20:04:48.678Z,99385.34
2023-12-09T20:07:17.406Z,99387.72
2023-12-09T20:09:44.907Z,99400.56
2023-12-09T20:12:11.663Z,99412.63
2023-12-09T20:14:38.251Z,99417.72
2023-12-09T20:17:06.870Z,99417.06
2023-12-09T20:19:35.288Z,99428.28
2023-12-09T20:22:01.962Z,99430.22
2023-12-09T20:24:30.804Z,99432.97
2023-12-09T20:26:57.678Z,99431.47
2023-12-09T20:29:24.276Z,99437.41
2023-12-09T20:31:52.800Z,99449.09
2023-12-09T20:34:21.737Z,99442.47
2023-12-09T20:36:50.014Z,99440.91
2023-12-09T20:39:17.464Z,99444.06
2023-12-09T20:41:48.798Z,99456.56
2023-12-09T20:44:15.437Z,99460.44
2023-12-09T20:46:42.288Z,99462.75
2023-12-09T20:49:14.120Z,99473.75
2023-12-09T20:51:47.577Z,99480.00
2023-12-09T20:54:15.804Z,99490.09
2023-12-09T20:56:45.634Z,99483.50
2023-12-09T20:59:12.725Z,99504.31
2023-12-09T21:01:46.771Z,99512.16
2023-12-09T21:04:14.121Z,99508.66
2023-12-09T21:06:41.290Z,99521.50
2023-12-09T21:09:08.263Z,99523.88
2023-12-09T21:11:38.615Z,99527.88
2023-12-09T21:14:05.617Z,99542.63
2023-12-09T21:16:35.616Z,99541.16
2023-12-09T21:19:03.100Z,99547.41
2023-12-09T21:21:32.872Z,99553.88
2023-12-09T21:23:59.613Z,99557.75
2023-12-09T21:26:26.459Z,99565.25
2023-12-09T21:28:53.068Z,99566.84
2023-12-09T21:31:19.744Z,99570.84
2023-12-09T21:33:46.542Z,99561.41
2023-12-09T21:36:16.136Z,99572.31
2023-12-09T21:38:44.054Z,99567.19
2023-12-09T21:41:21.616Z,99582.75
2023-12-09T21:43:49.975Z,99581.03
2023-12-09T21:46:25.048Z,99589.88
2023-12-09T21:48:53.746Z,99592.28
2023-12-09T21:51:21.790Z,99603.19
2023-12-09T21:53:48.669Z,99606.59
2023-12-09T21:56:22.352Z,99615.22
2023-12-09T21:58:52.091Z,99615.56
2023-12-09T22:01:20.185Z,99628.75
2023-12-09T22:03:48.064Z,99636.03
2023-12-09T22:06:15.561Z,99651.91
2023-12-09T22:08:43.621Z,99650.66
2023-12-09T22:11:10.743Z,99654.84
2023-12-09T22:13:37.552Z,99667.88
2023-12-09T22:16:04.398Z,99662.94
2023-12-09T22:18:31.279Z,99661.88
2023-12-09T22:21:00.399Z,99670.28
2023-12-09T22:23:37.034Z,99662.75
2023-12-09T22:26:03.798Z,99675.25
2023-12-09T22:28:31.618Z,99687.75
2023-12-09T22:30:58.841Z,99690.69
2023-12-09T22:33:26.089Z,99690.88
2023-12-09T22:35:53.090Z,99683.81
2023-12-09T22:38:19.950Z,99699.50
2023-12-09T22:40:46.646Z,99703.38
2023-12-09T22:43:13.285Z,99715.41
2023-12-09T22:45:39.842Z,99719.59
2023-12-09T22:48:07.216Z,99729.69
2023-12-09T22:50:34.624Z,99737.53
2023-12-09T22:53:01.639Z,99734.63
2023-12-09T22:55:28.539Z,99732.50
2023-12-09T22:57:55.185Z,99737.97
2023-12-09T23:00:32.721Z,99752.53
2023-12-09T23:03:02.510Z,99749.81
2023-12-09T23:05:29.387Z,99757.19
2023-12-09T23:07:56.124Z,99754.47
2023-12-09T23:10:23.045Z,99761.50
2023-12-09T23:12:49.751Z,99759.22
2023-12-09T23:15:16.543Z,99751.97
2023-12-09T23:17:43.346Z,99756.63
2023-12-09T23:20:10.394Z,99758.72
2023-12-09T23:22:37.054Z,99762.22
2023-12-09T23:25:04.135Z,99761.44
2023-12-09T23:27:30.800Z,99771.22
2023-12-09T23:29:57.406Z,99766.56
2023-12-09T23:32:23.969Z,99770.09
2023-12-09T23:34:50.730Z,99768.97
2023-12-09T23:37:18.519Z,99767.34
2023-12-09T23:39:45.228Z,99765.44
2023-12-09T23:42:11.920Z,99772.81
2023-12-09T23:44:38.544Z,99762.06
2023-12-09T23:47:07.672Z,99772.16
2023-12-09T23:49:34.378Z,99763.97
2023-12-09T23:52:01.017Z,99771.03
2023-12-09T23:54:27.651Z,99774.56
2023-12-09T23:56:54.211Z,99785.94
2023-12-09T23:59:23.804Z,99782.56
